sensor_id;sensor_type;location;lat;lon;timestamp;pressure;altitude;pressure_sealevel;temperature;humidity
76128;BME280;64873;50.102;14.434;2023-04-24T00:01:13;98271.94;;;10.66;82.16
76128;BME280;64873;50.102;14.434;2023-04-24T00:03:38;98272.81;;;10.89;82.38
76128;BME280;64873;50.102;14.434;2023-04-24T00:06:05;98271.88;;;10.61;81.12
76128;BME280;64873;50.102;14.434;2023-04-24T00:08:32;98252.19;;;10.51;82.09
76128;BME280;64873;50.102;14.434;2023-04-24T00:10:58;98260.66;;;10.48;81.43
76128;BME280;64873;50.102;14.434;2023-04-24T00:13:23;98263.59;;;10.63;81.86
76128;BME280;64873;50.102;14.434;2023-04-24T00:15:49;98271.03;;;10.94;81.96
76128;BME280;64873;50.102;14.434;2023-04-24T00:18:15;98256.53;;;10.90;80.82
76128;BME280;64873;50.102;14.434;2023-04-24T00:20:40;98266.84;;;10.99;80.20
76128;BME280;64873;50.102;14.434;2023-04-24T00:23:06;98263.63;;;10.97;79.73
76128;BME280;64873;50.102;14.434;2023-04-24T00:25:31;98263.28;;;10.93;79.83
76128;BME280;64873;50.102;14.434;2023-04-24T00:27:57;98261.41;;;10.93;79.61
76128;BME280;64873;50.102;14.434;2023-04-24T00:30:22;98239.59;;;11.02;79.06
76128;BME280;64873;50.102;14.434;2023-04-24T00:32:48;98252.31;;;11.11;78.54
76128;BME280;64873;50.102;14.434;2023-04-24T00:35:13;98251.09;;;11.19;78.45
76128;BME280;64873;50.102;14.434;2023-04-24T00:37:39;98253.22;;;11.17;78.16
76128;BME280;64873;50.102;14.434;2023-04-24T00:40:06;98234.91;;;11.09;77.91
76128;BME280;64873;50.102;14.434;2023-04-24T00:42:31;98237.38;;;11.32;78.31
76128;BME280;64873;50.102;14.434;2023-04-24T00:44:58;98233.84;;;11.48;78.57
76128;BME280;64873;50.102;14.434;2023-04-24T00:47:25;98233.78;;;11.43;77.39
76128;BME280;64873;50.102;14.434;2023-04-24T00:49:50;98209.97;;;11.64;77.89
76128;BME280;64873;50.102;14.434;2023-04-24T00:52:16;98209.34;;;11.57;77.14
76128;BME280;64873;50.102;14.434;2023-04-24T00:54:46;98215.69;;;11.51;76.90
76128;BME280;64873;50.102;14.434;2023-04-24T00:57:13;98203.09;;;11.29;77.03
76128;BME280;64873;50.102;14.434;2023-04-24T00:59:40;98212.19;;;11.28;77.19
76128;BME280;64873;50.102;14.434;2023-04-24T01:02:07;98221.63;;;11.36;77.13
76128;BME280;64873;50.102;14.434;2023-04-24T01:04:34;98220.28;;;11.33;76.78
76128;BME280;64873;50.102;14.434;2023-04-24T01:06:59;98222.88;;;11.28;76.94
76128;BME280;64873;50.102;14.434;2023-04-24T01:09:26;98229.84;;;11.29;77.07
76128;BME280;64873;50.102;14.434;2023-04-24T01:11:52;98217.69;;;11.38;77.25
76128;BME280;64873;50.102;14.434;2023-04-24T01:14:18;98224.31;;;11.36;76.58
76128;BME280;64873;50.102;14.434;2023-04-24T01:16:43;98227.31;;;11.39;76.26
76128;BME280;64873;50.102;14.434;2023-04-24T01:19:09;98217.78;;;11.48;76.74
76128;BME280;64873;50.102;14.434;2023-04-24T01:21:37;98215.88;;;11.44;75.97
76128;BME280;64873;50.102;14.434;2023-04-24T01:24:04;98215.13;;;11.27;77.02
76128;BME280;64873;50.102;14.434;2023-04-24T01:26:30;98213.44;;;11.20;77.95
76128;BME280;64873;50.102;14.434;2023-04-24T01:28:56;98212.94;;;11.07;78.09
76128;BME280;64873;50.102;14.434;2023-04-24T01:31:21;98210.72;;;10.99;78.34
76128;BME280;64873;50.102;14.434;2023-04-24T01:33:47;98207.22;;;10.98;78.46
76128;BME280;64873;50.102;14.434;2023-04-24T01:36:13;98213.38;;;10.99;78.38
76128;BME280;64873;50.102;14.434;2023-04-24T01:38:38;98219.00;;;11.19;78.78
76128;BME280;64873;50.102;14.434;2023-04-24T01:41:04;98209.00;;;11.31;78.40
76128;BME280;64873;50.102;14.434;2023-04-24T01:43:29;98204.97;;;11.29;77.70
76128;BME280;64873;50.102;14.434;2023-04-24T01:45:55;98212.31;;;11.38;76.17
76128;BME280;64873;50.102;14.434;2023-04-24T01:48:21;98209.22;;;11.46;75.91
76128;BME280;64873;50.102;14.434;2023-04-24T01:50:47;98197.97;;;11.44;75.08
76128;BME280;64873;50.102;14.434;2023-04-24T01:53:12;98189.94;;;11.44;74.72
76128;BME280;64873;50.102;14.434;2023-04-24T01:55:38;98204.94;;;11.67;74.83
76128;BME280;64873;50.102;14.434;2023-04-24T01:58:03;98207.75;;;11.61;74.04
76128;BME280;64873;50.102;14.434;2023-04-24T02:00:29;98205.72;;;11.68;73.26
76128;BME280;64873;50.102;14.434;2023-04-24T02:02:54;98186.00;;;11.74;73.02
76128;BME280;64873;50.102;14.434;2023-04-24T02:05:20;98194.44;;;11.66;73.52
76128;BME280;64873;50.102;14.434;2023-04-24T02:07:45;98188.88;;;11.67;73.65
76128;BME280;64873;50.102;14.434;2023-04-24T02:10:11;98184.25;;;11.63;73.30
76128;BME280;64873;50.102;14.434;2023-04-24T02:12:37;98180.78;;;11.62;74.00
76128;BME280;64873;50.102;14.434;2023-04-24T02:15:03;98182.75;;;11.72;73.23
76128;BME280;64873;50.102;14.434;2023-04-24T02:17:28;98183.31;;;11.74;73.55
76128;BME280;64873;50.102;14.434;2023-04-24T02:19:54;98195.25;;;11.66;74.53
76128;BME280;64873;50.102;14.434;2023-04-24T02:22:19;98186.34;;;11.61;74.65
76128;BME280;64873;50.102;14.434;2023-04-24T02:24:45;98180.97;;;11.56;74.74
76128;BME280;64873;50.102;14.434;2023-04-24T02:27:10;98193.09;;;11.63;75.41
76128;BME280;64873;50.102;14.434;2023-04-24T02:29:36;98179.28;;;11.50;75.39
76128;BME280;64873;50.102;14.434;2023-04-24T02:32:02;98180.53;;;11.64;75.72
76128;BME280;64873;50.102;14.434;2023-04-24T02:34:27;98198.84;;;11.77;75.77
76128;BME280;64873;50.102;14.434;2023-04-24T02:36:53;98181.72;;;11.73;75.82
76128;BME280;64873;50.102;14.434;2023-04-24T02:39:21;98171.91;;;11.84;75.92
76128;BME280;64873;50.102;14.434;2023-04-24T02:41:46;98170.00;;;11.79;75.61
76128;BME280;64873;50.102;14.434;2023-04-24T02:44:12;98185.41;;;11.72;75.62
76128;BME280;64873;50.102;14.434;2023-04-24T02:46:37;98190.78;;;11.72;75.42
76128;BME280;64873;50.102;14.434;2023-04-24T02:49:03;98193.72;;;11.92;76.39
76128;BME280;64873;50.102;14.434;2023-04-24T02:51:29;98184.66;;;11.98;76.05
76128;BME280;64873;50.102;14.434;2023-04-24T02:53:54;98183.50;;;11.89;75.40
76128;BME280;64873;50.102;14.434;2023-04-24T02:56:20;98187.19;;;11.83;75.61
76128;BME280;64873;50.102;14.434;2023-04-24T02:58:45;98183.44;;;11.84;76.77
76128;BME280;64873;50.102;14.434;2023-04-24T03:01:10;98187.19;;;11.83;76.70
76128;BME280;64873;50.102;14.434;2023-04-24T03:03:37;98187.09;;;11.78;76.97
76128;BME280;64873;50.102;14.434;2023-04-24T03:06:03;98184.56;;;11.88;76.82
76128;BME280;64873;50.102;14.434;2023-04-24T03:08:31;98179.06;;;11.78;76.58
76128;BME280;64873;50.102;14.434;2023-04-24T03:10:56;98184.66;;;11.98;76.96
76128;BME280;64873;50.102;14.434;2023-04-24T03:13:22;98181.19;;;11.76;75.90
76128;BME280;64873;50.102;14.434;2023-04-24T03:15:47;98182.31;;;11.80;76.96
76128;BME280;64873;50.102;14.434;2023-04-24T03:18:12;98182.81;;;11.77;76.29
76128;BME280;64873;50.102;14.434;2023-04-24T03:20:38;98172.72;;;11.84;77.31
76128;BME280;64873;50.102;14.434;2023-04-24T03:23:03;98177.59;;;11.87;77.16
76128;BME280;64873;50.102;14.434;2023-04-24T03:25:29;98188.41;;;11.97;77.63
76128;BME280;64873;50.102;14.434;2023-04-24T03:27:54;98182.47;;;11.90;77.01
76128;BME280;64873;50.102;14.434;2023-04-24T03:30:20;98167.53;;;11.78;76.87
76128;BME280;64873;50.102;14.434;2023-04-24T03:32:46;98172.44;;;12.08;77.56
76128;BME280;64873;50.102;14.434;2023-04-24T03:35:11;98170.56;;;11.81;76.81
76128;BME280;64873;50.102;14.434;2023-04-24T03:37:36;98172.22;;;11.65;77.03
76128;BME280;64873;50.102;14.434;2023-04-24T03:40:02;98163.91;;;11.62;77.38
76128;BME280;64873;50.102;14.434;2023-04-24T03:42:28;98169.75;;;11.59;77.76
76128;BME280;64873;50.102;14.434;2023-04-24T03:44:53;98185.94;;;11.69;78.51
76128;BME280;64873;50.102;14.434;2023-04-24T03:47:18;98189.09;;;11.66;79.03
76128;BME280;64873;50.102;14.434;2023-04-24T03:49:44;98191.28;;;11.69;78.07
76128;BME280;64873;50.102;14.434;2023-04-24T03:52:10;98185.31;;;11.62;78.59
76128;BME280;64873;50.102;14.434;2023-04-24T03:54:35;98187.31;;;11.50;78.37
76128;BME280;64873;50.102;14.434;2023-04-24T03:57:01;98184.59;;;11.44;78.57
76128;BME280;64873;50.102;14.434;2023-04-24T03:59:26;98186.75;;;11.47;78.67
76128;BME280;64873;50.102;14.434;2023-04-24T04:01:52;98181.59;;;11.41;79.04
76128;BME280;64873;50.102;14.434;2023-04-24T04:04:17;98189.34;;;11.42;78.87
76128;BME280;64873;50.102;14.434;2023-04-24T04:06:43;98189.13;;;11.44;79.18
76128;BME280;64873;50.102;14.434;2023-04-24T04:09:09;98178.09;;;11.40;78.96
76128;BME280;64873;50.102;14.434;2023-04-24T04:11:35;98197.69;;;11.46;78.70
76128;BME280;64873;50.102;14.434;2023-04-24T04:14:00;98199.06;;;11.48;78.77
76128;BME280;64873;50.102;14.434;2023-04-24T04:16:26;98200.72;;;11.55;79.45
76128;BME280;64873;50.102;14.434;2023-04-24T04:18:51;98203.94;;;11.52;78.59
76128;BME280;64873;50.102;14.434;2023-04-24T04:21:16;98208.53;;;11.56;78.53
76128;BME280;64873;50.102;14.434;2023-04-24T04:23:42;98203.41;;;11.77;79.20
76128;BME280;64873;50.102;14.434;2023-04-24T04:26:07;98205.81;;;11.78;78.64
76128;BME280;64873;50.102;14.434;2023-04-24T04:28:33;98208.47;;;11.73;78.42
76128;BME280;64873;50.102;14.434;2023-04-24T04:30:58;98212.97;;;11.72;78.28
76128;BME280;64873;50.102;14.434;2023-04-24T04:33:32;98214.44;;;11.80;77.98
76128;BME280;64873;50.102;14.434;2023-04-24T04:36:00;98214.25;;;11.87;77.88
76128;BME280;64873;50.102;14.434;2023-04-24T04:38:54;98213.38;;;12.03;76.51
76128;BME280;64873;50.102;14.434;2023-04-24T04:41:24;98212.75;;;12.23;75.55
76128;BME280;64873;50.102;14.434;2023-04-24T04:43:50;98209.31;;;12.00;76.27
76128;BME280;64873;50.102;14.434;2023-04-24T04:46:20;98220.03;;;12.00;76.92
76128;BME280;64873;50.102;14.434;2023-04-24T04:48:49;98223.13;;;12.14;76.16
76128;BME280;64873;50.102;14.434;2023-04-24T04:51:17;98229.34;;;12.20;76.08
76128;BME280;64873;50.102;14.434;2023-04-24T04:53:48;98233.66;;;12.21;76.00
76128;BME280;64873;50.102;14.434;2023-04-24T04:59:24;98231.84;;;12.05;76.60
76128;BME280;64873;50.102;14.434;2023-04-24T05:01:55;98232.31;;;11.96;77.07
76128;BME280;64873;50.102;14.434;2023-04-24T05:04:30;98234.59;;;12.10;76.56
76128;BME280;64873;50.102;14.434;2023-04-24T05:06:57;98228.72;;;12.13;77.41
76128;BME280;64873;50.102;14.434;2023-04-24T05:09:31;98239.94;;;12.10;77.81
76128;BME280;64873;50.102;14.434;2023-04-24T05:11:57;98240.66;;;12.27;76.91
76128;BME280;64873;50.102;14.434;2023-04-24T05:14:23;98239.59;;;12.28;75.99
76128;BME280;64873;50.102;14.434;2023-04-24T05:16:48;98243.47;;;12.42;75.48
76128;BME280;64873;50.102;14.434;2023-04-24T05:19:14;98229.00;;;12.38;76.78
76128;BME280;64873;50.102;14.434;2023-04-24T05:21:46;98246.25;;;12.52;74.75
76128;BME280;64873;50.102;14.434;2023-04-24T05:24:17;98254.75;;;12.44;74.96
76128;BME280;64873;50.102;14.434;2023-04-24T05:26:45;98239.75;;;12.43;74.44
76128;BME280;64873;50.102;14.434;2023-04-24T05:29:11;98252.09;;;12.44;74.75
76128;BME280;64873;50.102;14.434;2023-04-24T05:31:51;98250.91;;;12.35;74.56
76128;BME280;64873;50.102;14.434;2023-04-24T05:34:22;98253.78;;;12.56;74.23
76128;BME280;64873;50.102;14.434;2023-04-24T05:36:57;98257.41;;;12.39;75.21
76128;BME280;64873;50.102;14.434;2023-04-24T05:39:27;98253.84;;;12.34;75.58
76128;BME280;64873;50.102;14.434;2023-04-24T05:41:55;98252.78;;;12.35;74.83
76128;BME280;64873;50.102;14.434;2023-04-24T05:44:23;98248.94;;;12.52;73.93
76128;BME280;64873;50.102;14.434;2023-04-24T05:46:57;98257.22;;;12.51;74.09
76128;BME280;64873;50.102;14.434;2023-04-24T05:49:22;98253.97;;;12.44;73.88
76128;BME280;64873;50.102;14.434;2023-04-24T05:51:48;98259.66;;;12.52;74.15
76128;BME280;64873;50.102;14.434;2023-04-24T05:54:13;98262.84;;;12.49;74.23
76128;BME280;64873;50.102;14.434;2023-04-24T05:56:39;98271.69;;;12.50;75.49
76128;BME280;64873;50.102;14.434;2023-04-24T05:59:05;98269.09;;;12.60;73.74
76128;BME280;64873;50.102;14.434;2023-04-24T06:01:31;98280.88;;;12.59;73.51
76128;BME280;64873;50.102;14.434;2023-04-24T06:03:57;98266.88;;;12.52;73.67
76128;BME280;64873;50.102;14.434;2023-04-24T06:06:23;98267.69;;;12.52;73.75
76128;BME280;64873;50.102;14.434;2023-04-24T06:08:49;98284.63;;;12.58;73.85
76128;BME280;64873;50.102;14.434;2023-04-24T06:11:14;98275.31;;;12.66;73.51
76128;BME280;64873;50.102;14.434;2023-04-24T06:13:40;98262.47;;;12.68;73.47
76128;BME280;64873;50.102;14.434;2023-04-24T06:16:05;98279.19;;;12.80;73.02
76128;BME280;64873;50.102;14.434;2023-04-24T06:18:30;98284.50;;;12.75;73.19
76128;BME280;64873;50.102;14.434;2023-04-24T06:20:56;98277.44;;;12.64;73.57
76128;BME280;64873;50.102;14.434;2023-04-24T06:23:21;98293.22;;;12.60;74.49
76128;BME280;64873;50.102;14.434;2023-04-24T06:25:47;98287.03;;;12.60;75.90
76128;BME280;64873;50.102;14.434;2023-04-24T06:28:12;98286.44;;;12.52;76.01
76128;BME280;64873;50.102;14.434;2023-04-24T06:30:38;98295.72;;;12.67;74.55
76128;BME280;64873;50.102;14.434;2023-04-24T06:33:03;98299.31;;;12.50;75.44
76128;BME280;64873;50.102;14.434;2023-04-24T06:35:30;98298.06;;;12.36;76.77
76128;BME280;64873;50.102;14.434;2023-04-24T06:37:55;98308.44;;;12.27;77.14
76128;BME280;64873;50.102;14.434;2023-04-24T06:40:21;98313.13;;;12.42;76.93
76128;BME280;64873;50.102;14.434;2023-04-24T06:42:47;98309.03;;;12.35;77.84
76128;BME280;64873;50.102;14.434;2023-04-24T06:45:12;98293.22;;;12.33;77.52
76128;BME280;64873;50.102;14.434;2023-04-24T06:47:37;98298.06;;;12.36;77.33
76128;BME280;64873;50.102;14.434;2023-04-24T06:50:03;98309.78;;;12.30;77.80
76128;BME280;64873;50.102;14.434;2023-04-24T06:52:29;98310.66;;;12.36;78.11
76128;BME280;64873;50.102;14.434;2023-04-24T06:55:04;98303.94;;;12.33;78.50
76128;BME280;64873;50.102;14.434;2023-04-24T06:57:31;98297.16;;;12.52;77.89
76128;BME280;64873;50.102;14.434;2023-04-24T06:59:57;98305.16;;;12.47;78.17
76128;BME280;64873;50.102;14.434;2023-04-24T07:02:22;98310.25;;;12.76;77.44
76128;BME280;64873;50.102;14.434;2023-04-24T07:04:48;98300.84;;;13.05;76.41
76128;BME280;64873;50.102;14.434;2023-04-24T07:07:14;98307.50;;;13.30;75.56
76128;BME280;64873;50.102;14.434;2023-04-24T07:09:40;98316.34;;;13.25;75.30
76128;BME280;64873;50.102;14.434;2023-04-24T07:12:10;98324.19;;;13.37;74.95
76128;BME280;64873;50.102;14.434;2023-04-24T07:14:36;98326.22;;;13.25;75.04
76128;BME280;64873;50.102;14.434;2023-04-24T07:17:03;98313.47;;;13.37;75.23
76128;BME280;64873;50.102;14.434;2023-04-24T07:19:29;98325.53;;;13.40;74.79
76128;BME280;64873;50.102;14.434;2023-04-24T07:21:54;98329.00;;;13.35;74.82
76128;BME280;64873;50.102;14.434;2023-04-24T07:24:20;98324.13;;;13.27;75.35
76128;BME280;64873;50.102;14.434;2023-04-24T07:26:46;98322.31;;;13.05;76.82
76128;BME280;64873;50.102;14.434;2023-04-24T07:29:12;98322.53;;;12.99;76.55
76128;BME280;64873;50.102;14.434;2023-04-24T07:31:41;98322.03;;;13.02;76.75
76128;BME280;64873;50.102;14.434;2023-04-24T07:34:07;98320.31;;;12.91;75.93
76128;BME280;64873;50.102;14.434;2023-04-24T07:36:32;98308.97;;;12.84;76.13
76128;BME280;64873;50.102;14.434;2023-04-24T07:38:58;98312.59;;;12.99;75.34
76128;BME280;64873;50.102;14.434;2023-04-24T07:41:23;98312.59;;;12.99;75.91
76128;BME280;64873;50.102;14.434;2023-04-24T07:43:49;98319.56;;;13.00;75.56
76128;BME280;64873;50.102;14.434;2023-04-24T07:46:15;98326.97;;;12.88;75.59
76128;BME280;64873;50.102;14.434;2023-04-24T07:48:40;98329.72;;;12.93;77.42
76128;BME280;64873;50.102;14.434;2023-04-24T07:51:06;98332.78;;;12.75;76.90
76128;BME280;64873;50.102;14.434;2023-04-24T07:53:31;98340.88;;;12.80;76.88
76128;BME280;64873;50.102;14.434;2023-04-24T07:55:56;98337.53;;;12.68;77.11
76128;BME280;64873;50.102;14.434;2023-04-24T07:58:22;98355.63;;;12.82;76.96
76128;BME280;64873;50.102;14.434;2023-04-24T08:00:47;98346.72;;;12.77;76.55
76128;BME280;64873;50.102;14.434;2023-04-24T08:03:14;98351.47;;;12.70;77.17
76128;BME280;64873;50.102;14.434;2023-04-24T08:05:40;98346.13;;;12.70;76.54
76128;BME280;64873;50.102;14.434;2023-04-24T08:08:07;98334.34;;;12.44;76.95
76128;BME280;64873;50.102;14.434;2023-04-24T08:10:32;98344.81;;;12.45;77.10
76128;BME280;64873;50.102;14.434;2023-04-24T08:12:57;98328.19;;;12.48;76.12
76128;BME280;64873;50.102;14.434;2023-04-24T08:15:23;98353.81;;;12.61;76.65
76128;BME280;64873;50.102;14.434;2023-04-24T08:17:48;98350.53;;;12.81;76.01
76128;BME280;64873;50.102;14.434;2023-04-24T08:20:15;98348.19;;;12.63;76.28
76128;BME280;64873;50.102;14.434;2023-04-24T08:22:41;98332.97;;;12.68;76.53
76128;BME280;64873;50.102;14.434;2023-04-24T08:25:08;98340.97;;;12.90;76.01
76128;BME280;64873;50.102;14.434;2023-04-24T08:27:33;98320.59;;;12.94;75.08
76128;BME280;64873;50.102;14.434;2023-04-24T08:29:59;98333.56;;;13.02;75.08
76128;BME280;64873;50.102;14.434;2023-04-24T08:32:27;98338.22;;;12.85;75.44
76128;BME280;64873;50.102;14.434;2023-04-24T08:34:56;98330.72;;;12.87;74.71
76128;BME280;64873;50.102;14.434;2023-04-24T08:37:25;98327.88;;;12.99;73.38
76128;BME280;64873;50.102;14.434;2023-04-24T08:39:51;98321.50;;;13.05;73.16
76128;BME280;64873;50.102;14.434;2023-04-24T08:42:17;98325.06;;;13.16;72.50
76128;BME280;64873;50.102;14.434;2023-04-24T08:44:43;98333.25;;;12.67;73.43
76128;BME280;64873;50.102;14.434;2023-04-24T08:47:10;98343.84;;;12.57;74.42
76128;BME280;64873;50.102;14.434;2023-04-24T08:49:37;98342.66;;;12.47;75.09
76128;BME280;64873;50.102;14.434;2023-04-24T08:52:03;98344.91;;;12.56;75.08
76128;BME280;64873;50.102;14.434;2023-04-24T08:54:31;98342.31;;;12.66;76.20
76128;BME280;64873;50.102;14.434;2023-04-24T08:57:00;98358.56;;;12.81;74.81
76128;BME280;64873;50.102;14.434;2023-04-24T08:59:31;98349.75;;;12.86;75.17
76128;BME280;64873;50.102;14.434;2023-04-24T09:01:57;98349.66;;;13.02;75.06
76128;BME280;64873;50.102;14.434;2023-04-24T09:04:24;98344.25;;;12.97;74.22
76128;BME280;64873;50.102;14.434;2023-04-24T09:06:51;98353.47;;;13.12;74.09
76128;BME280;64873;50.102;14.434;2023-04-24T09:09:17;98344.19;;;12.65;75.01
76128;BME280;64873;50.102;14.434;2023-04-24T09:11:46;98345.72;;;12.56;75.48
76128;BME280;64873;50.102;14.434;2023-04-24T09:14:12;98359.41;;;12.87;75.34
76128;BME280;64873;50.102;14.434;2023-04-24T09:16:38;98359.34;;;13.08;74.33
76128;BME280;64873;50.102;14.434;2023-04-24T09:19:03;98359.50;;;13.24;73.89
76128;BME280;64873;50.102;14.434;2023-04-24T09:21:32;98350.94;;;13.27;74.67
76128;BME280;64873;50.102;14.434;2023-04-24T09:24:00;98352.88;;;13.37;74.06
76128;BME280;64873;50.102;14.434;2023-04-24T09:26:29;98346.53;;;13.95;71.73
76128;BME280;64873;50.102;14.434;2023-04-24T09:28:57;98349.78;;;13.97;71.47
76128;BME280;64873;50.102;14.434;2023-04-24T09:31:22;98348.31;;;14.32;70.58
76128;BME280;64873;50.102;14.434;2023-04-24T09:33:59;98345.06;;;14.25;72.21
76128;BME280;64873;50.102;14.434;2023-04-24T09:36:30;98341.44;;;14.77;69.89
76128;BME280;64873;50.102;14.434;2023-04-24T09:38:59;98337.59;;;14.37;71.69
76128;BME280;64873;50.102;14.434;2023-04-24T09:41:25;98339.59;;;14.04;73.02
76128;BME280;64873;50.102;14.434;2023-04-24T09:43:53;98328.16;;;14.39;71.49
76128;BME280;64873;50.102;14.434;2023-04-24T09:46:19;98333.84;;;14.43;71.18
76128;BME280;64873;50.102;14.434;2023-04-24T09:48:46;98337.59;;;14.37;72.06
76128;BME280;64873;50.102;14.434;2023-04-24T09:51:12;98336.38;;;14.90;69.90
76128;BME280;64873;50.102;14.434;2023-04-24T09:53:38;98310.81;;;15.03;68.77
76128;BME280;64873;50.102;14.434;2023-04-24T09:56:09;98335.78;;;15.70;67.22
76128;BME280;64873;50.102;14.434;2023-04-24T09:58:36;98322.63;;;15.33;68.27
76128;BME280;64873;50.102;14.434;2023-04-24T10:01:02;98329.09;;;15.06;68.03
76128;BME280;64873;50.102;14.434;2023-04-24T10:03:32;98318.88;;;15.29;68.82
76128;BME280;64873;50.102;14.434;2023-04-24T10:06:01;98325.84;;;15.45;67.29
76128;BME280;64873;50.102;14.434;2023-04-24T10:08:33;98311.22;;;15.87;65.23
76128;BME280;64873;50.102;14.434;2023-04-24T10:11:00;98317.03;;;16.24;63.95
76128;BME280;64873;50.102;14.434;2023-04-24T10:13:26;98318.72;;;16.05;65.19
76128;BME280;64873;50.102;14.434;2023-04-24T10:15:53;98306.03;;;16.11;65.74
76128;BME280;64873;50.102;14.434;2023-04-24T10:18:20;98306.06;;;16.55;63.13
76128;BME280;64873;50.102;14.434;2023-04-24T10:20:46;98306.75;;;16.76;62.14
76128;BME280;64873;50.102;14.434;2023-04-24T10:23:12;98300.31;;;16.67;61.34
76128;BME280;64873;50.102;14.434;2023-04-24T10:25:37;98303.22;;;15.71;60.50
76128;BME280;64873;50.102;14.434;2023-04-24T10:28:04;98299.53;;;16.12;59.64
76128;BME280;64873;50.102;14.434;2023-04-24T10:30:32;98288.75;;;16.17;61.23
76128;BME280;64873;50.102;14.434;2023-04-24T10:33:04;98293.00;;;16.28;61.53
76128;BME280;64873;50.102;14.434;2023-04-24T10:35:36;98296.81;;;16.66;58.25
76128;BME280;64873;50.102;14.434;2023-04-24T10:38:03;98293.16;;;16.47;57.94
76128;BME280;64873;50.102;14.434;2023-04-24T10:40:33;98291.59;;;16.36;57.47
76128;BME280;64873;50.102;14.434;2023-04-24T10:42:59;98302.34;;;17.24;56.22
76128;BME280;64873;50.102;14.434;2023-04-24T10:45:27;98294.78;;;16.48;56.93
76128;BME280;64873;50.102;14.434;2023-04-24T10:50:19;98294.22;;;16.02;57.60
76128;BME280;64873;50.102;14.434;2023-04-24T10:52:48;98288.44;;;16.23;57.13
76128;BME280;64873;50.102;14.434;2023-04-24T10:55:40;98293.09;;;16.57;57.06
76128;BME280;64873;50.102;14.434;2023-04-24T10:58:06;98280.41;;;16.18;55.79
76128;BME280;64873;50.102;14.434;2023-04-24T11:00:31;98285.31;;;16.01;56.52
76128;BME280;64873;50.102;14.434;2023-04-24T11:02:57;98280.59;;;16.32;56.18
76128;BME280;64873;50.102;14.434;2023-04-24T11:05:49;98277.47;;;16.05;56.86
76128;BME280;64873;50.102;14.434;2023-04-24T11:08:21;98281.16;;;16.68;55.76
76128;BME280;64873;50.102;14.434;2023-04-24T11:10:47;98276.50;;;16.35;55.58
76128;BME280;64873;50.102;14.434;2023-04-24T11:13:21;98269.97;;;16.90;55.08
76128;BME280;64873;50.102;14.434;2023-04-24T11:17:07;98271.13;;;16.35;54.11
76128;BME280;64873;50.102;14.434;2023-04-24T11:19:06;98278.03;;;16.51;53.92
76128;BME280;64873;50.102;14.434;2023-04-24T11:21:54;98265.84;;;16.19;52.88
76128;BME280;64873;50.102;14.434;2023-04-24T11:27:13;98260.13;;;16.26;53.92
76128;BME280;64873;50.102;14.434;2023-04-24T11:29:58;98267.63;;;16.29;53.78
76128;BME280;64873;50.102;14.434;2023-04-24T11:34:58;98260.53;;;16.48;53.51
76128;BME280;64873;50.102;14.434;2023-04-24T11:37:35;98264.91;;;16.34;53.32
76128;BME280;64873;50.102;14.434;2023-04-24T11:40:03;98266.59;;;16.30;53.57
76128;BME280;64873;50.102;14.434;2023-04-24T11:42:33;98276.34;;;16.65;52.30
76128;BME280;64873;50.102;14.434;2023-04-24T11:44:59;98263.88;;;16.69;50.37
76128;BME280;64873;50.102;14.434;2023-04-24T11:47:29;98269.78;;;16.76;50.22
76128;BME280;64873;50.102;14.434;2023-04-24T11:49:55;98279.44;;;16.83;51.27
76128;BME280;64873;50.102;14.434;2023-04-24T11:52:20;98271.97;;;16.69;50.92
76128;BME280;64873;50.102;14.434;2023-04-24T11:54:49;98260.91;;;16.71;51.50
76128;BME280;64873;50.102;14.434;2023-04-24T11:57:15;98259.97;;;16.51;51.41
76128;BME280;64873;50.102;14.434;2023-04-24T11:59:41;98253.28;;;16.44;51.54
76128;BME280;64873;50.102;14.434;2023-04-24T12:02:06;98252.28;;;16.30;52.08
76128;BME280;64873;50.102;14.434;2023-04-24T12:04:39;98260.56;;;15.89;54.29
76128;BME280;64873;50.102;14.434;2023-04-24T12:07:05;98257.88;;;15.89;53.90
76128;BME280;64873;50.102;14.434;2023-04-24T12:09:48;98270.63;;;15.73;54.55
76128;BME280;64873;50.102;14.434;2023-04-24T12:12:17;98283.81;;;15.64;56.32
76128;BME280;64873;50.102;14.434;2023-04-24T12:14:51;98287.41;;;15.14;60.10
76128;BME280;64873;50.102;14.434;2023-04-24T12:17:17;98280.38;;;14.57;63.36
76128;BME280;64873;50.102;14.434;2023-04-24T12:19:47;98304.09;;;13.92;69.06
76128;BME280;64873;50.102;14.434;2023-04-24T12:22:13;98307.34;;;14.04;68.75
76128;BME280;64873;50.102;14.434;2023-04-24T12:25:04;98307.69;;;14.13;69.21
76128;BME280;64873;50.102;14.434;2023-04-24T12:27:33;98302.53;;;14.11;68.68
76128;BME280;64873;50.102;14.434;2023-04-24T12:30:00;98319.50;;;14.22;69.05
76128;BME280;64873;50.102;14.434;2023-04-24T12:32:26;98316.53;;;14.08;69.78
76128;BME280;64873;50.102;14.434;2023-04-24T12:34:53;98310.28;;;13.98;70.29
76128;BME280;64873;50.102;14.434;2023-04-24T12:37:19;98313.09;;;13.71;71.16
76128;BME280;64873;50.102;14.434;2023-04-24T12:40:09;98303.28;;;13.92;71.96
76128;BME280;64873;50.102;14.434;2023-04-24T12:42:41;98311.03;;;13.88;71.99
76128;BME280;64873;50.102;14.434;2023-04-24T12:45:07;98308.97;;;14.05;71.26
76128;BME280;64873;50.102;14.434;2023-04-24T12:47:34;98293.41;;;14.12;71.34
76128;BME280;64873;50.102;14.434;2023-04-24T12:50:00;98305.31;;;14.32;70.22
76128;BME280;64873;50.102;14.434;2023-04-24T12:52:28;98300.28;;;14.51;69.47
76128;BME280;64873;50.102;14.434;2023-04-24T12:54:54;98304.06;;;14.60;69.18
76128;BME280;64873;50.102;14.434;2023-04-24T12:57:21;98306.75;;;14.70;69.13
76128;BME280;64873;50.102;14.434;2023-04-24T12:59:47;98301.91;;;14.77;68.63
76128;BME280;64873;50.102;14.434;2023-04-24T13:02:12;98308.66;;;14.80;68.00